Saint Albans, Missouri
Current Conditions -  °F | °C
As of 1:54 AM on Friday 28 Nov 2014 (Local Time) from KSUS Reporting Station
Clear Clear  
Wind Chill: -6°   Ceiling: Unl
Heat Index: -3°   Visibility: 10mi
Dew Point: -7°   Wind: 5mph
Humidity: 75%   Direction: 120°ESE
Pressure: 30.37"   Gusts: NA
Location:  38.58°N, 90.77°W
Report Text: KSUS 280754Z AUTO 12004KT 10SM CLR M03/M07 A3037 RMK AO2 SLP294 T10281067
Loading
Personal Weather Stations






























Interactive Weather Map New forecast layout! Learn more

10-Day Weather Forecast

Advertisements
Track Severe Weather on mobile